createdAt,value
2019-05-03T00:02:12.185Z,93.20
2019-05-03T00:08:14.362Z,94.00
2019-05-03T00:14:16.848Z,94.70
2019-05-03T00:20:19.113Z,94.90
2019-05-03T00:26:22.591Z,95.30
2019-05-03T00:32:26.887Z,95.40
2019-05-03T00:38:29.213Z,95.70
2019-05-03T00:44:31.780Z,95.90
2019-05-03T00:50:34.242Z,96.40
2019-05-03T00:56:36.475Z,96.40
2019-05-03T01:02:38.793Z,96.50
2019-05-03T01:08:41.934Z,96.60
2019-05-03T01:14:46.079Z,96.60
2019-05-03T01:20:48.302Z,96.60
2019-05-03T01:26:52.431Z,96.70
2019-05-03T01:32:54.753Z,96.70
2019-05-03T01:38:57.190Z,97.00
2019-05-03T01:45:01.537Z,96.50
2019-05-03T01:51:05.370Z,96.60
2019-05-03T01:57:07.599Z,96.70
2019-05-03T02:03:14.588Z,96.80
2019-05-03T02:09:16.767Z,97.10
2019-05-03T02:15:19.200Z,97.30
2019-05-03T02:21:21.705Z,97.50
2019-05-03T02:27:24.062Z,97.60
2019-05-03T02:33:26.394Z,97.70
2019-05-03T02:39:29.789Z,97.90
2019-05-03T02:45:35.179Z,98.10
2019-05-03T02:51:37.370Z,98.40
2019-05-03T02:57:39.783Z,98.20
2019-05-03T03:03:42.121Z,98.50
2019-05-03T03:09:45.530Z,98.80
2019-05-03T03:15:50.233Z,98.40
2019-05-03T03:21:56.279Z,98.50
2019-05-03T03:28:00.852Z,98.60
2019-05-03T03:34:08.830Z,98.40
2019-05-03T03:40:12.205Z,98.60
2019-05-03T03:46:15.872Z,98.60
2019-05-03T03:52:19.921Z,98.50
2019-05-03T03:58:26.736Z,98.40
2019-05-03T04:04:28.536Z,98.30
2019-05-03T04:10:31.049Z,98.50
2019-05-03T04:16:38.252Z,98.30
2019-05-03T04:22:40.757Z,98.40
2019-05-03T04:28:45.396Z,98.90
2019-05-03T04:34:47.271Z,98.90
2019-05-03T04:40:50.814Z,98.40
2019-05-03T04:46:55.994Z,98.70
2019-05-03T04:52:57.333Z,98.60
2019-05-03T04:58:59.591Z,98.90
2019-05-03T05:05:02.112Z,98.60
2019-05-03T05:11:10.030Z,98.40
2019-05-03T05:17:12.214Z,98.60
2019-05-03T05:23:14.890Z,98.60
2019-05-03T05:29:19.253Z,98.40
2019-05-03T05:35:21.620Z,98.10
2019-05-03T05:41:24.542Z,97.80
2019-05-03T05:47:40.658Z,97.40
2019-05-03T05:53:44.783Z,97.60
2019-05-03T05:59:49.017Z,97.50
2019-05-03T06:05:51.785Z,97.80
2019-05-03T06:11:56.070Z,97.60
2019-05-03T06:18:00.354Z,97.40
2019-05-03T06:24:07.727Z,97.30
2019-05-03T06:30:28.955Z,97.40
2019-05-03T06:36:31.424Z,97.30
2019-05-03T06:42:35.521Z,97.10
2019-05-03T06:48:37.928Z,96.80
2019-05-03T06:54:40.335Z,97.00
2019-05-03T07:00:55.241Z,97.20
2019-05-03T07:07:15.400Z,97.20
2019-05-03T07:13:17.413Z,97.30
2019-05-03T07:19:19.656Z,97.30
2019-05-03T07:25:22.394Z,97.40
2019-05-03T07:31:25.533Z,97.50
2019-05-03T07:37:28.528Z,97.60
2019-05-03T07:43:31.228Z,98.00
2019-05-03T07:49:35.491Z,97.50
2019-05-03T07:55:56.580Z,97.40
2019-05-03T08:01:59.256Z,97.40
2019-05-03T08:08:01.730Z,97.40
2019-05-03T08:14:05.676Z,96.80
2019-05-03T08:20:08.176Z,96.80
2019-05-03T08:26:10.497Z,96.20
2019-05-03T08:32:35.141Z,96.40
2019-05-03T08:38:37.075Z,95.90
2019-05-03T08:44:39.564Z,95.70
2019-05-03T08:50:41.899Z,93.60
2019-05-03T08:56:45.154Z,93.10
2019-05-03T09:02:47.640Z,93.50
2019-05-03T09:08:49.905Z,93.00
2019-05-03T09:14:54.293Z,92.90
2019-05-03T09:20:56.615Z,92.70
2019-05-03T09:26:59.021Z,92.70
2019-05-03T09:33:01.343Z,92.10
2019-05-03T09:39:05.403Z,92.40
2019-05-03T09:45:08.493Z,92.20
2019-05-03T09:51:10.827Z,91.50
2019-05-03T09:57:15.252Z,91.10
2019-05-03T10:03:17.800Z,91.30
2019-05-03T10:09:20.778Z,91.00
2019-05-03T10:15:41.644Z,90.70
2019-05-03T10:21:48.340Z,89.70
2019-05-03T10:27:55.032Z,84.90
2019-05-03T10:33:59.471Z,82.20
2019-05-03T10:40:07.801Z,80.20
2019-05-03T10:46:09.241Z,82.00
2019-05-03T10:52:12.003Z,82.80
2019-05-03T10:58:18.968Z,81.50
2019-05-03T11:04:21.562Z,77.90
2019-05-03T11:10:25.259Z,77.50
2019-05-03T11:16:28.163Z,78.50
2019-05-03T11:22:30.509Z,75.40
2019-05-03T11:28:32.689Z,71.40
2019-05-03T11:34:36.862Z,73.40
2019-05-03T11:40:39.251Z,72.00
2019-05-03T11:46:44.534Z,73.00
2019-05-03T11:52:47.400Z,75.90
2019-05-03T11:58:49.994Z,76.20
2019-05-03T12:04:52.393Z,77.50
2019-05-03T12:10:59.763Z,75.70
2019-05-03T12:17:17.184Z,75.90
2019-05-03T12:23:06.398Z,77.60
2019-05-03T12:29:09.169Z,79.40
2019-05-03T12:35:11.438Z,79.60
2019-05-03T12:41:15.076Z,78.60
2019-05-03T12:47:17.571Z,79.10
2019-05-03T12:53:22.021Z,80.80
2019-05-03T12:59:30.958Z,83.20
2019-05-03T13:05:35.515Z,82.10
2019-05-03T13:11:51.787Z,82.10
2019-05-03T13:17:45.412Z,79.90
2019-05-03T13:23:47.883Z,79.00
2019-05-03T13:29:50.211Z,77.60
2019-05-03T13:35:52.581Z,75.50
2019-05-03T13:41:55.030Z,76.00
2019-05-03T13:48:04.821Z,76.50
2019-05-03T13:54:06.468Z,75.30
2019-05-03T14:00:09.190Z,77.50
2019-05-03T14:06:11.658Z,76.70
2019-05-03T14:12:15.464Z,76.70
2019-05-03T14:18:17.947Z,77.70
2019-05-03T14:24:20.244Z,77.50
2019-05-03T14:30:22.872Z,77.10
2019-05-03T14:36:25.274Z,73.90
2019-05-03T14:42:27.621Z,71.50
2019-05-03T14:48:30.018Z,70.90
2019-05-03T14:54:34.562Z,70.20
2019-05-03T15:00:45.429Z,70.80
2019-05-03T15:06:47.858Z,71.60
2019-05-03T15:12:50.354Z,73.00
2019-05-03T15:18:54.751Z,75.00
2019-05-03T15:24:57.343Z,74.20
2019-05-03T15:30:59.805Z,74.10
2019-05-03T15:37:02.135Z,75.50
2019-05-03T15:43:10.354Z,75.80
2019-05-03T15:49:16.366Z,76.20
2019-05-03T15:55:22.325Z,78.50
2019-05-03T16:01:25.089Z,78.70
2019-05-03T16:07:27.599Z,78.50
2019-05-03T16:13:30.062Z,78.90
2019-05-03T16:19:32.425Z,79.80
2019-05-03T16:25:35.622Z,80.30
2019-05-03T16:31:38.077Z,82.50
2019-05-03T16:37:41.219Z,82.20
2019-05-03T16:43:45.551Z,82.40
2019-05-03T16:49:47.879Z,82.30
2019-05-03T16:55:50.228Z,82.70
2019-05-03T17:01:52.746Z,82.20
2019-05-03T17:08:15.281Z,82.30
2019-05-03T17:14:17.773Z,82.50
2019-05-03T17:20:20.919Z,83.20
2019-05-03T17:26:24.872Z,83.60
2019-05-03T17:32:27.739Z,84.10
2019-05-03T17:38:30.130Z,86.00
2019-05-03T17:44:37.113Z,86.90
2019-05-03T17:50:39.609Z,87.30
2019-05-03T17:57:00.074Z,87.90
2019-05-03T18:03:04.701Z,88.00
2019-05-03T18:09:09.714Z,88.80
2019-05-03T18:15:12.133Z,88.90
2019-05-03T18:21:15.356Z,90.00
2019-05-03T18:27:17.695Z,90.30
2019-05-03T18:33:20.146Z,90.20
2019-05-03T18:39:22.550Z,90.20
2019-05-03T18:45:28.298Z,90.60
2019-05-03T18:51:30.636Z,90.70
2019-05-03T18:57:33.007Z,90.80
2019-05-03T19:03:35.847Z,90.90
2019-05-03T19:09:40.819Z,91.00
2019-05-03T19:15:43.715Z,91.20
2019-05-03T19:21:47.007Z,91.30
2019-05-03T19:27:50.072Z,91.60
2019-05-03T19:33:52.486Z,91.70
2019-05-03T19:39:55.382Z,91.80
2019-05-03T19:45:57.676Z,91.60
2019-05-03T19:52:00.128Z,92.00
2019-05-03T19:58:02.792Z,92.40
2019-05-03T20:04:10.102Z,92.80
2019-05-03T20:10:14.630Z,93.00
2019-05-03T20:16:17.040Z,93.10
2019-05-03T20:22:19.352Z,93.20
2019-05-03T20:28:21.723Z,93.30
2019-05-03T20:34:24.859Z,93.20
2019-05-03T20:40:27.479Z,93.50
2019-05-03T20:46:34.552Z,93.30
2019-05-03T20:52:37.798Z,93.30
2019-05-03T20:58:40.234Z,93.10
2019-05-03T21:04:42.885Z,93.00
2019-05-03T21:10:46.162Z,93.20
2019-05-03T21:16:50.992Z,93.40
2019-05-03T21:22:54.780Z,93.80
2019-05-03T21:28:57.150Z,93.70
2019-05-03T21:34:59.512Z,93.60
2019-05-03T21:41:02.406Z,93.70
2019-05-03T21:47:12.692Z,94.00
2019-05-03T21:53:15.731Z,94.20
2019-05-03T21:59:18.036Z,94.70
2019-05-03T22:05:20.837Z,94.70
2019-05-03T22:11:25.013Z,94.60
2019-05-03T22:24:35.636Z,94.80
2019-05-03T22:30:38.055Z,95.00
2019-05-03T22:36:41.516Z,95.10
2019-05-03T22:42:44.810Z,95.40
2019-05-03T22:48:47.212Z,94.90
2019-05-03T22:54:49.559Z,94.60
2019-05-03T23:00:51.859Z,94.60
2019-05-03T23:06:55.507Z,94.70
2019-05-03T23:12:57.998Z,94.70
2019-05-03T23:33:08.738Z,95.40
2019-05-03T23:39:10.967Z,95.60
2019-05-03T23:45:14.891Z,95.70
2019-05-03T23:51:35.080Z,95.70
2019-05-03T23:57:37.598Z,95.60
